sensor_id;sensor_type;location;lat;lon;timestamp;P1;durP1;ratioP1;P2;durP2;ratioP2
479;SDS011;226;48.606;9.096;2023-08-24T00:01:54;12.73;;;10.80;;
479;SDS011;226;48.606;9.096;2023-08-24T00:04:22;12.83;;;9.37;;
479;SDS011;226;48.606;9.096;2023-08-24T00:06:51;12.83;;;10.87;;
479;SDS011;226;48.606;9.096;2023-08-24T00:09:20;12.93;;;10.57;;
479;SDS011;226;48.606;9.096;2023-08-24T00:11:48;12.40;;;10.47;;
479;SDS011;226;48.606;9.096;2023-08-24T00:14:16;15.90;;;11.17;;
479;SDS011;226;48.606;9.096;2023-08-24T00:16:44;15.23;;;12.00;;
479;SDS011;226;48.606;9.096;2023-08-24T00:19:13;18.40;;;11.10;;
479;SDS011;226;48.606;9.096;2023-08-24T00:21:41;13.67;;;10.57;;
479;SDS011;226;48.606;9.096;2023-08-24T00:24:09;12.47;;;9.77;;
479;SDS011;226;48.606;9.096;2023-08-24T00:26:38;12.90;;;10.10;;
479;SDS011;226;48.606;9.096;2023-08-24T00:29:06;21.23;;;11.13;;
479;SDS011;226;48.606;9.096;2023-08-24T00:31:34;15.17;;;11.40;;
479;SDS011;226;48.606;9.096;2023-08-24T00:34:01;14.10;;;10.07;;
479;SDS011;226;48.606;9.096;2023-08-24T00:36:29;16.30;;;12.07;;
479;SDS011;226;48.606;9.096;2023-08-24T00:38:57;15.90;;;11.80;;
479;SDS011;226;48.606;9.096;2023-08-24T00:41:25;16.67;;;11.00;;
479;SDS011;226;48.606;9.096;2023-08-24T00:43:55;15.77;;;10.90;;
479;SDS011;226;48.606;9.096;2023-08-24T00:46:24;12.00;;;9.70;;
479;SDS011;226;48.606;9.096;2023-08-24T00:48:54;17.00;;;10.83;;
479;SDS011;226;48.606;9.096;2023-08-24T00:51:25;14.17;;;12.40;;
479;SDS011;226;48.606;9.096;2023-08-24T00:53:53;21.00;;;10.97;;
479;SDS011;226;48.606;9.096;2023-08-24T00:56:23;17.77;;;10.97;;
479;SDS011;226;48.606;9.096;2023-08-24T00:58:52;20.23;;;10.80;;
479;SDS011;226;48.606;9.096;2023-08-24T01:01:23;18.70;;;11.27;;
479;SDS011;226;48.606;9.096;2023-08-24T01:03:51;14.80;;;11.37;;
479;SDS011;226;48.606;9.096;2023-08-24T01:06:20;15.10;;;11.03;;
479;SDS011;226;48.606;9.096;2023-08-24T01:08:48;18.27;;;11.37;;
479;SDS011;226;48.606;9.096;2023-08-24T01:11:17;17.40;;;11.10;;
479;SDS011;226;48.606;9.096;2023-08-24T01:13:54;14.97;;;10.40;;
479;SDS011;226;48.606;9.096;2023-08-24T01:16:28;17.70;;;11.13;;
479;SDS011;226;48.606;9.096;2023-08-24T01:18:58;16.93;;;11.63;;
479;SDS011;226;48.606;9.096;2023-08-24T01:21:27;19.20;;;12.10;;
479;SDS011;226;48.606;9.096;2023-08-24T01:23:57;17.20;;;12.17;;
479;SDS011;226;48.606;9.096;2023-08-24T01:26:32;22.97;;;12.33;;
479;SDS011;226;48.606;9.096;2023-08-24T01:29:01;22.37;;;13.10;;
479;SDS011;226;48.606;9.096;2023-08-24T01:31:31;18.47;;;13.27;;
479;SDS011;226;48.606;9.096;2023-08-24T01:33:59;15.40;;;11.83;;
479;SDS011;226;48.606;9.096;2023-08-24T01:36:28;18.13;;;11.20;;
479;SDS011;226;48.606;9.096;2023-08-24T01:38:58;17.53;;;12.30;;
479;SDS011;226;48.606;9.096;2023-08-24T01:41:35;16.60;;;11.47;;
479;SDS011;226;48.606;9.096;2023-08-24T01:44:05;19.07;;;12.47;;
479;SDS011;226;48.606;9.096;2023-08-24T01:46:35;18.10;;;12.40;;
479;SDS011;226;48.606;9.096;2023-08-24T01:49:05;17.67;;;12.43;;
479;SDS011;226;48.606;9.096;2023-08-24T01:51:34;18.80;;;11.87;;
479;SDS011;226;48.606;9.096;2023-08-24T01:54:03;16.93;;;14.00;;
479;SDS011;226;48.606;9.096;2023-08-24T01:56:31;19.40;;;13.07;;
479;SDS011;226;48.606;9.096;2023-08-24T01:59:01;15.97;;;11.77;;
479;SDS011;226;48.606;9.096;2023-08-24T02:01:29;18.00;;;12.43;;
479;SDS011;226;48.606;9.096;2023-08-24T02:03:57;20.07;;;11.80;;
479;SDS011;226;48.606;9.096;2023-08-24T02:06:26;13.80;;;11.20;;
479;SDS011;226;48.606;9.096;2023-08-24T02:08:54;18.10;;;12.40;;
479;SDS011;226;48.606;9.096;2023-08-24T02:11:22;19.87;;;11.77;;
479;SDS011;226;48.606;9.096;2023-08-24T02:13:50;18.13;;;12.03;;
479;SDS011;226;48.606;9.096;2023-08-24T02:16:20;16.47;;;11.30;;
479;SDS011;226;48.606;9.096;2023-08-24T02:18:48;17.83;;;11.80;;
479;SDS011;226;48.606;9.096;2023-08-24T02:21:16;16.33;;;12.20;;
479;SDS011;226;48.606;9.096;2023-08-24T02:23:44;15.93;;;11.40;;
479;SDS011;226;48.606;9.096;2023-08-24T02:26:12;17.73;;;12.50;;
479;SDS011;226;48.606;9.096;2023-08-24T02:28:40;15.73;;;11.60;;
479;SDS011;226;48.606;9.096;2023-08-24T02:31:08;19.60;;;12.40;;
479;SDS011;226;48.606;9.096;2023-08-24T02:33:37;18.13;;;13.03;;
479;SDS011;226;48.606;9.096;2023-08-24T02:36:06;31.27;;;12.30;;
479;SDS011;226;48.606;9.096;2023-08-24T02:38:34;18.03;;;12.20;;
479;SDS011;226;48.606;9.096;2023-08-24T02:41:02;15.33;;;11.10;;
479;SDS011;226;48.606;9.096;2023-08-24T02:43:31;19.67;;;12.50;;
479;SDS011;226;48.606;9.096;2023-08-24T02:46:00;16.40;;;11.33;;
479;SDS011;226;48.606;9.096;2023-08-24T02:48:29;19.43;;;13.07;;
479;SDS011;226;48.606;9.096;2023-08-24T02:50:59;20.63;;;12.73;;
479;SDS011;226;48.606;9.096;2023-08-24T02:53:29;19.53;;;13.03;;
479;SDS011;226;48.606;9.096;2023-08-24T02:55:58;17.10;;;11.73;;
479;SDS011;226;48.606;9.096;2023-08-24T02:58:26;18.33;;;11.70;;
479;SDS011;226;48.606;9.096;2023-08-24T03:00:54;20.10;;;12.10;;
479;SDS011;226;48.606;9.096;2023-08-24T03:03:22;14.90;;;11.93;;
479;SDS011;226;48.606;9.096;2023-08-24T03:05:54;18.83;;;11.83;;
479;SDS011;226;48.606;9.096;2023-08-24T03:08:24;16.53;;;12.33;;
479;SDS011;226;48.606;9.096;2023-08-24T03:10:53;15.17;;;12.20;;
479;SDS011;226;48.606;9.096;2023-08-24T03:13:21;19.13;;;13.20;;
479;SDS011;226;48.606;9.096;2023-08-24T03:15:49;16.33;;;12.80;;
479;SDS011;226;48.606;9.096;2023-08-24T03:18:18;17.70;;;12.60;;
479;SDS011;226;48.606;9.096;2023-08-24T03:20:48;17.20;;;12.43;;
479;SDS011;226;48.606;9.096;2023-08-24T03:23:16;14.70;;;11.83;;
479;SDS011;226;48.606;9.096;2023-08-24T03:25:46;17.73;;;11.93;;
479;SDS011;226;48.606;9.096;2023-08-24T03:28:14;40.53;;;13.57;;
479;SDS011;226;48.606;9.096;2023-08-24T03:30:45;14.70;;;11.60;;
479;SDS011;226;48.606;9.096;2023-08-24T03:33:14;17.47;;;12.57;;
479;SDS011;226;48.606;9.096;2023-08-24T03:35:42;16.77;;;11.87;;
479;SDS011;226;48.606;9.096;2023-08-24T03:38:11;16.90;;;11.83;;
479;SDS011;226;48.606;9.096;2023-08-24T03:40:39;16.93;;;11.90;;
479;SDS011;226;48.606;9.096;2023-08-24T03:43:08;16.43;;;11.50;;
479;SDS011;226;48.606;9.096;2023-08-24T03:45:36;13.97;;;10.07;;
479;SDS011;226;48.606;9.096;2023-08-24T03:48:05;16.80;;;11.30;;
479;SDS011;226;48.606;9.096;2023-08-24T03:50:33;16.70;;;11.60;;
479;SDS011;226;48.606;9.096;2023-08-24T03:53:02;15.00;;;12.10;;
479;SDS011;226;48.606;9.096;2023-08-24T03:55:31;17.87;;;12.23;;
479;SDS011;226;48.606;9.096;2023-08-24T03:58:00;16.00;;;12.77;;
479;SDS011;226;48.606;9.096;2023-08-24T04:00:29;16.30;;;12.53;;
479;SDS011;226;48.606;9.096;2023-08-24T04:02:58;16.00;;;11.70;;
479;SDS011;226;48.606;9.096;2023-08-24T04:05:26;13.13;;;11.53;;
479;SDS011;226;48.606;9.096;2023-08-24T04:07:54;13.93;;;11.33;;
479;SDS011;226;48.606;9.096;2023-08-24T04:10:22;17.70;;;12.37;;
479;SDS011;226;48.606;9.096;2023-08-24T04:12:50;16.50;;;11.90;;
479;SDS011;226;48.606;9.096;2023-08-24T04:15:18;18.27;;;11.97;;
479;SDS011;226;48.606;9.096;2023-08-24T04:17:47;25.43;;;12.70;;
479;SDS011;226;48.606;9.096;2023-08-24T04:20:16;24.40;;;12.77;;
479;SDS011;226;48.606;9.096;2023-08-24T04:22:45;17.30;;;11.83;;
479;SDS011;226;48.606;9.096;2023-08-24T04:25:13;15.67;;;11.17;;
479;SDS011;226;48.606;9.096;2023-08-24T04:27:41;18.70;;;11.90;;
479;SDS011;226;48.606;9.096;2023-08-24T04:30:09;26.10;;;12.50;;
479;SDS011;226;48.606;9.096;2023-08-24T04:32:38;19.57;;;13.30;;
479;SDS011;226;48.606;9.096;2023-08-24T04:35:08;15.10;;;11.47;;
479;SDS011;226;48.606;9.096;2023-08-24T04:37:37;15.93;;;12.03;;
479;SDS011;226;48.606;9.096;2023-08-24T04:40:05;15.87;;;11.93;;
479;SDS011;226;48.606;9.096;2023-08-24T04:42:34;15.70;;;11.63;;
479;SDS011;226;48.606;9.096;2023-08-24T04:45:02;18.00;;;12.30;;
479;SDS011;226;48.606;9.096;2023-08-24T04:47:31;16.07;;;13.30;;
479;SDS011;226;48.606;9.096;2023-08-24T04:49:59;18.73;;;12.47;;
479;SDS011;226;48.606;9.096;2023-08-24T04:52:28;21.50;;;12.40;;
479;SDS011;226;48.606;9.096;2023-08-24T04:54:56;14.27;;;11.03;;
479;SDS011;226;48.606;9.096;2023-08-24T04:57:25;18.40;;;13.13;;
479;SDS011;226;48.606;9.096;2023-08-24T04:59:53;16.30;;;12.00;;
479;SDS011;226;48.606;9.096;2023-08-24T05:02:21;17.50;;;11.93;;
479;SDS011;226;48.606;9.096;2023-08-24T05:04:49;20.30;;;11.13;;
479;SDS011;226;48.606;9.096;2023-08-24T05:07:17;20.83;;;12.50;;
479;SDS011;226;48.606;9.096;2023-08-24T05:09:47;18.27;;;11.13;;
479;SDS011;226;48.606;9.096;2023-08-24T05:12:15;15.70;;;12.07;;
479;SDS011;226;48.606;9.096;2023-08-24T05:14:43;20.30;;;12.43;;
479;SDS011;226;48.606;9.096;2023-08-24T05:17:11;14.00;;;10.80;;
479;SDS011;226;48.606;9.096;2023-08-24T05:19:39;14.40;;;10.50;;
479;SDS011;226;48.606;9.096;2023-08-24T05:22:07;14.43;;;11.13;;
479;SDS011;226;48.606;9.096;2023-08-24T05:24:35;17.37;;;11.73;;
479;SDS011;226;48.606;9.096;2023-08-24T05:27:05;26.00;;;13.97;;
479;SDS011;226;48.606;9.096;2023-08-24T05:29:33;15.50;;;10.77;;
479;SDS011;226;48.606;9.096;2023-08-24T05:32:01;14.90;;;11.07;;
479;SDS011;226;48.606;9.096;2023-08-24T05:34:30;14.40;;;11.20;;
479;SDS011;226;48.606;9.096;2023-08-24T05:36:58;14.83;;;12.97;;
479;SDS011;226;48.606;9.096;2023-08-24T05:39:26;16.10;;;11.03;;
479;SDS011;226;48.606;9.096;2023-08-24T05:41:54;20.80;;;11.70;;
479;SDS011;226;48.606;9.096;2023-08-24T05:44:23;15.93;;;11.77;;
479;SDS011;226;48.606;9.096;2023-08-24T05:46:51;13.60;;;12.10;;
479;SDS011;226;48.606;9.096;2023-08-24T05:49:20;13.13;;;10.80;;
479;SDS011;226;48.606;9.096;2023-08-24T05:51:50;12.33;;;10.80;;
479;SDS011;226;48.606;9.096;2023-08-24T05:54:18;16.50;;;10.77;;
479;SDS011;226;48.606;9.096;2023-08-24T05:56:47;14.67;;;9.83;;
479;SDS011;226;48.606;9.096;2023-08-24T05:59:15;16.93;;;11.30;;
479;SDS011;226;48.606;9.096;2023-08-24T06:01:44;11.83;;;9.73;;
479;SDS011;226;48.606;9.096;2023-08-24T06:04:13;11.93;;;9.50;;
479;SDS011;226;48.606;9.096;2023-08-24T06:06:41;12.60;;;10.20;;
479;SDS011;226;48.606;9.096;2023-08-24T06:09:09;22.53;;;11.57;;
479;SDS011;226;48.606;9.096;2023-08-24T06:11:37;13.73;;;11.10;;
479;SDS011;226;48.606;9.096;2023-08-24T06:14:07;14.73;;;10.83;;
479;SDS011;226;48.606;9.096;2023-08-24T06:16:35;13.23;;;10.03;;
479;SDS011;226;48.606;9.096;2023-08-24T06:19:04;18.73;;;9.90;;
479;SDS011;226;48.606;9.096;2023-08-24T06:21:32;13.57;;;11.10;;
479;SDS011;226;48.606;9.096;2023-08-24T06:24:00;15.77;;;10.33;;
479;SDS011;226;48.606;9.096;2023-08-24T06:26:30;14.17;;;10.50;;
479;SDS011;226;48.606;9.096;2023-08-24T06:28:58;17.17;;;11.07;;
479;SDS011;226;48.606;9.096;2023-08-24T06:31:26;11.10;;;9.67;;
479;SDS011;226;48.606;9.096;2023-08-24T06:33:54;14.13;;;10.57;;
479;SDS011;226;48.606;9.096;2023-08-24T06:36:24;15.70;;;10.37;;
479;SDS011;226;48.606;9.096;2023-08-24T06:38:52;20.60;;;11.07;;
479;SDS011;226;48.606;9.096;2023-08-24T06:41:20;11.63;;;10.00;;
479;SDS011;226;48.606;9.096;2023-08-24T06:43:48;13.10;;;9.97;;
479;SDS011;226;48.606;9.096;2023-08-24T06:46:16;12.13;;;9.93;;
479;SDS011;226;48.606;9.096;2023-08-24T06:48:45;15.67;;;9.93;;
479;SDS011;226;48.606;9.096;2023-08-24T06:51:13;12.83;;;9.73;;
479;SDS011;226;48.606;9.096;2023-08-24T06:53:43;10.00;;;8.30;;
479;SDS011;226;48.606;9.096;2023-08-24T06:56:12;12.40;;;9.83;;
479;SDS011;226;48.606;9.096;2023-08-24T06:58:41;19.23;;;10.57;;
479;SDS011;226;48.606;9.096;2023-08-24T07:01:09;20.70;;;11.20;;
479;SDS011;226;48.606;9.096;2023-08-24T07:03:37;11.37;;;9.07;;
479;SDS011;226;48.606;9.096;2023-08-24T07:06:06;17.33;;;9.93;;
479;SDS011;226;48.606;9.096;2023-08-24T07:08:34;26.23;;;9.80;;
479;SDS011;226;48.606;9.096;2023-08-24T07:11:05;19.60;;;12.03;;
479;SDS011;226;48.606;9.096;2023-08-24T07:13:33;22.43;;;11.53;;
479;SDS011;226;48.606;9.096;2023-08-24T07:16:02;21.63;;;11.30;;
479;SDS011;226;48.606;9.096;2023-08-24T07:18:30;15.10;;;9.87;;
479;SDS011;226;48.606;9.096;2023-08-24T07:20:58;32.47;;;12.00;;
479;SDS011;226;48.606;9.096;2023-08-24T07:23:26;21.40;;;11.00;;
479;SDS011;226;48.606;9.096;2023-08-24T07:25:55;15.27;;;9.63;;
479;SDS011;226;48.606;9.096;2023-08-24T07:28:24;16.60;;;11.60;;
479;SDS011;226;48.606;9.096;2023-08-24T07:30:52;15.77;;;9.27;;
479;SDS011;226;48.606;9.096;2023-08-24T07:33:22;13.80;;;10.00;;
479;SDS011;226;48.606;9.096;2023-08-24T07:35:51;16.97;;;10.40;;
479;SDS011;226;48.606;9.096;2023-08-24T07:38:19;21.83;;;10.43;;
479;SDS011;226;48.606;9.096;2023-08-24T07:40:47;13.43;;;10.13;;
479;SDS011;226;48.606;9.096;2023-08-24T07:43:15;19.87;;;9.43;;
479;SDS011;226;48.606;9.096;2023-08-24T07:45:45;12.63;;;9.50;;
479;SDS011;226;48.606;9.096;2023-08-24T07:48:13;11.27;;;9.47;;
479;SDS011;226;48.606;9.096;2023-08-24T07:50:41;12.70;;;10.17;;
479;SDS011;226;48.606;9.096;2023-08-24T07:53:09;12.23;;;9.60;;
479;SDS011;226;48.606;9.096;2023-08-24T07:55:37;12.57;;;10.10;;
479;SDS011;226;48.606;9.096;2023-08-24T07:58:06;10.77;;;9.07;;
479;SDS011;226;48.606;9.096;2023-08-24T08:00:34;13.80;;;8.47;;
479;SDS011;226;48.606;9.096;2023-08-24T08:03:04;15.40;;;9.07;;
479;SDS011;226;48.606;9.096;2023-08-24T08:05:32;11.90;;;9.47;;
479;SDS011;226;48.606;9.096;2023-08-24T08:08:00;9.73;;;8.77;;
479;SDS011;226;48.606;9.096;2023-08-24T08:10:28;17.23;;;9.23;;
479;SDS011;226;48.606;9.096;2023-08-24T08:12:56;11.77;;;8.67;;
479;SDS011;226;48.606;9.096;2023-08-24T08:15:24;16.30;;;10.03;;
479;SDS011;226;48.606;9.096;2023-08-24T08:17:52;10.10;;;8.80;;
479;SDS011;226;48.606;9.096;2023-08-24T08:20:22;12.80;;;9.00;;
479;SDS011;226;48.606;9.096;2023-08-24T08:22:51;9.27;;;7.47;;
479;SDS011;226;48.606;9.096;2023-08-24T08:25:19;12.73;;;7.87;;
479;SDS011;226;48.606;9.096;2023-08-24T08:27:48;14.37;;;9.20;;
479;SDS011;226;48.606;9.096;2023-08-24T08:30:17;11.23;;;7.73;;
479;SDS011;226;48.606;9.096;2023-08-24T08:32:46;7.63;;;6.93;;
479;SDS011;226;48.606;9.096;2023-08-24T08:35:15;11.53;;;8.43;;
479;SDS011;226;48.606;9.096;2023-08-24T08:37:44;10.33;;;7.70;;
479;SDS011;226;48.606;9.096;2023-08-24T08:40:17;11.60;;;7.90;;
479;SDS011;226;48.606;9.096;2023-08-24T08:42:45;14.27;;;7.60;;
479;SDS011;226;48.606;9.096;2023-08-24T08:45:13;9.37;;;7.97;;
479;SDS011;226;48.606;9.096;2023-08-24T08:47:42;10.20;;;7.43;;
479;SDS011;226;48.606;9.096;2023-08-24T08:50:10;7.20;;;6.50;;
479;SDS011;226;48.606;9.096;2023-08-24T08:52:40;10.80;;;7.80;;
479;SDS011;226;48.606;9.096;2023-08-24T08:55:10;12.20;;;8.30;;
479;SDS011;226;48.606;9.096;2023-08-24T08:57:39;9.03;;;7.53;;
479;SDS011;226;48.606;9.096;2023-08-24T09:00:10;7.50;;;6.70;;
479;SDS011;226;48.606;9.096;2023-08-24T09:02:40;9.50;;;6.80;;
479;SDS011;226;48.606;9.096;2023-08-24T09:05:11;8.70;;;7.13;;
479;SDS011;226;48.606;9.096;2023-08-24T09:07:40;9.20;;;8.10;;
479;SDS011;226;48.606;9.096;2023-08-24T09:10:10;16.80;;;7.43;;
479;SDS011;226;48.606;9.096;2023-08-24T09:12:38;8.80;;;7.57;;
479;SDS011;226;48.606;9.096;2023-08-24T09:15:07;7.80;;;6.97;;
479;SDS011;226;48.606;9.096;2023-08-24T09:17:36;9.83;;;7.20;;
479;SDS011;226;48.606;9.096;2023-08-24T09:20:10;7.80;;;7.00;;
479;SDS011;226;48.606;9.096;2023-08-24T09:22:39;7.93;;;7.03;;
479;SDS011;226;48.606;9.096;2023-08-24T09:25:10;8.03;;;7.10;;
479;SDS011;226;48.606;9.096;2023-08-24T09:27:38;8.00;;;6.97;;
479;SDS011;226;48.606;9.096;2023-08-24T09:30:08;8.43;;;7.37;;
479;SDS011;226;48.606;9.096;2023-08-24T09:32:37;7.93;;;7.13;;
479;SDS011;226;48.606;9.096;2023-08-24T09:35:07;7.40;;;6.60;;
479;SDS011;226;48.606;9.096;2023-08-24T09:37:36;12.93;;;6.80;;
479;SDS011;226;48.606;9.096;2023-08-24T09:40:06;10.03;;;6.37;;
479;SDS011;226;48.606;9.096;2023-08-24T09:42:40;9.10;;;7.10;;
479;SDS011;226;48.606;9.096;2023-08-24T09:45:11;8.80;;;7.43;;
479;SDS011;226;48.606;9.096;2023-08-24T09:47:44;9.53;;;7.20;;
479;SDS011;226;48.606;9.096;2023-08-24T09:50:13;9.07;;;7.10;;
479;SDS011;226;48.606;9.096;2023-08-24T09:52:42;9.40;;;6.57;;
479;SDS011;226;48.606;9.096;2023-08-24T09:55:11;8.17;;;7.30;;
479;SDS011;226;48.606;9.096;2023-08-24T09:57:42;7.80;;;7.10;;
479;SDS011;226;48.606;9.096;2023-08-24T10:00:13;9.27;;;6.97;;
479;SDS011;226;48.606;9.096;2023-08-24T10:02:45;7.70;;;7.00;;
479;SDS011;226;48.606;9.096;2023-08-24T10:05:19;7.93;;;7.10;;
479;SDS011;226;48.606;9.096;2023-08-24T10:08:07;10.23;;;6.87;;
479;SDS011;226;48.606;9.096;2023-08-24T10:10:36;9.50;;;6.67;;
479;SDS011;226;48.606;9.096;2023-08-24T10:13:10;7.80;;;6.43;;
479;SDS011;226;48.606;9.096;2023-08-24T10:15:45;7.50;;;6.80;;
479;SDS011;226;48.606;9.096;2023-08-24T10:18:15;8.20;;;6.60;;
479;SDS011;226;48.606;9.096;2023-08-24T10:20:43;9.43;;;6.60;;
479;SDS011;226;48.606;9.096;2023-08-24T10:23:13;9.87;;;7.20;;
479;SDS011;226;48.606;9.096;2023-08-24T10:25:44;7.93;;;7.13;;
479;SDS011;226;48.606;9.096;2023-08-24T10:28:15;10.33;;;7.53;;
479;SDS011;226;48.606;9.096;2023-08-24T10:30:45;9.90;;;7.00;;
479;SDS011;226;48.606;9.096;2023-08-24T10:33:14;7.27;;;6.63;;
479;SDS011;226;48.606;9.096;2023-08-24T10:35:43;7.63;;;6.87;;
479;SDS011;226;48.606;9.096;2023-08-24T10:38:22;10.20;;;7.20;;
479;SDS011;226;48.606;9.096;2023-08-24T10:40:52;8.60;;;6.83;;
479;SDS011;226;48.606;9.096;2023-08-24T10:43:23;13.10;;;9.00;;
479;SDS011;226;48.606;9.096;2023-08-24T10:45:54;9.70;;;7.20;;
479;SDS011;226;48.606;9.096;2023-08-24T10:48:27;13.73;;;6.90;;
479;SDS011;226;48.606;9.096;2023-08-24T10:53:51;8.13;;;7.27;;
479;SDS011;226;48.606;9.096;2023-08-24T10:56:20;14.77;;;7.70;;
479;SDS011;226;48.606;9.096;2023-08-24T11:01:40;8.20;;;6.87;;
479;SDS011;226;48.606;9.096;2023-08-24T11:04:10;7.67;;;6.80;;
479;SDS011;226;48.606;9.096;2023-08-24T11:06:51;7.90;;;7.07;;
479;SDS011;226;48.606;9.096;2023-08-24T11:09:25;7.90;;;6.63;;
479;SDS011;226;48.606;9.096;2023-08-24T11:12:05;9.20;;;7.73;;
479;SDS011;226;48.606;9.096;2023-08-24T11:14:34;15.23;;;7.23;;
479;SDS011;226;48.606;9.096;2023-08-24T11:17:18;9.10;;;7.10;;
479;SDS011;226;48.606;9.096;2023-08-24T11:19:47;9.60;;;7.20;;
479;SDS011;226;48.606;9.096;2023-08-24T11:22:16;11.00;;;7.00;;
479;SDS011;226;48.606;9.096;2023-08-24T11:24:45;10.30;;;7.23;;
479;SDS011;226;48.606;9.096;2023-08-24T11:27:13;8.50;;;7.23;;
479;SDS011;226;48.606;9.096;2023-08-24T11:29:43;8.70;;;7.70;;
479;SDS011;226;48.606;9.096;2023-08-24T11:32:12;7.63;;;6.70;;
479;SDS011;226;48.606;9.096;2023-08-24T11:34:40;10.90;;;8.17;;
479;SDS011;226;48.606;9.096;2023-08-24T11:37:18;13.40;;;7.20;;
479;SDS011;226;48.606;9.096;2023-08-24T11:39:46;6.63;;;6.00;;
479;SDS011;226;48.606;9.096;2023-08-24T11:42:14;7.83;;;6.77;;
479;SDS011;226;48.606;9.096;2023-08-24T11:44:47;11.13;;;7.20;;
479;SDS011;226;48.606;9.096;2023-08-24T11:47:16;8.80;;;7.13;;
479;SDS011;226;48.606;9.096;2023-08-24T11:49:47;8.83;;;6.97;;
479;SDS011;226;48.606;9.096;2023-08-24T11:52:15;11.27;;;7.80;;
479;SDS011;226;48.606;9.096;2023-08-24T11:54:44;8.00;;;6.77;;
479;SDS011;226;48.606;9.096;2023-08-24T11:57:12;9.93;;;6.73;;
479;SDS011;226;48.606;9.096;2023-08-24T11:59:40;10.40;;;6.83;;
479;SDS011;226;48.606;9.096;2023-08-24T12:02:10;8.33;;;5.90;;
479;SDS011;226;48.606;9.096;2023-08-24T12:04:39;9.30;;;6.30;;
479;SDS011;226;48.606;9.096;2023-08-24T12:07:09;7.50;;;6.13;;
479;SDS011;226;48.606;9.096;2023-08-24T12:09:38;11.57;;;6.13;;
479;SDS011;226;48.606;9.096;2023-08-24T12:12:11;6.63;;;6.03;;
479;SDS011;226;48.606;9.096;2023-08-24T12:14:40;8.00;;;6.53;;
479;SDS011;226;48.606;9.096;2023-08-24T12:17:08;9.20;;;6.47;;
479;SDS011;226;48.606;9.096;2023-08-24T12:19:40;13.33;;;6.50;;
479;SDS011;226;48.606;9.096;2023-08-24T12:22:12;14.67;;;7.03;;
479;SDS011;226;48.606;9.096;2023-08-24T12:24:43;9.57;;;6.33;;
479;SDS011;226;48.606;9.096;2023-08-24T12:27:17;14.43;;;6.73;;
479;SDS011;226;48.606;9.096;2023-08-24T12:29:45;7.47;;;5.97;;
479;SDS011;226;48.606;9.096;2023-08-24T12:32:16;9.60;;;5.40;;
479;SDS011;226;48.606;9.096;2023-08-24T12:34:46;6.83;;;5.67;;
479;SDS011;226;48.606;9.096;2023-08-24T12:37:14;9.30;;;5.50;;
479;SDS011;226;48.606;9.096;2023-08-24T12:39:42;11.40;;;5.80;;
479;SDS011;226;48.606;9.096;2023-08-24T12:42:11;11.10;;;6.10;;
479;SDS011;226;48.606;9.096;2023-08-24T12:44:39;10.20;;;5.70;;
479;SDS011;226;48.606;9.096;2023-08-24T12:47:07;6.37;;;5.60;;
479;SDS011;226;48.606;9.096;2023-08-24T12:49:37;13.10;;;7.10;;
479;SDS011;226;48.606;9.096;2023-08-24T12:52:05;10.60;;;6.30;;
479;SDS011;226;48.606;9.096;2023-08-24T12:54:33;7.90;;;6.13;;
479;SDS011;226;48.606;9.096;2023-08-24T12:57:01;7.63;;;5.03;;
479;SDS011;226;48.606;9.096;2023-08-24T12:59:30;9.43;;;5.63;;
479;SDS011;226;48.606;9.096;2023-08-24T13:01:58;6.90;;;5.43;;
479;SDS011;226;48.606;9.096;2023-08-24T13:04:26;7.33;;;5.73;;
479;SDS011;226;48.606;9.096;2023-08-24T13:06:58;9.70;;;6.00;;
479;SDS011;226;48.606;9.096;2023-08-24T13:09:26;7.67;;;4.87;;
479;SDS011;226;48.606;9.096;2023-08-24T13:11:54;8.13;;;5.40;;
479;SDS011;226;48.606;9.096;2023-08-24T13:14:23;9.60;;;5.60;;
479;SDS011;226;48.606;9.096;2023-08-24T13:16:51;21.60;;;4.80;;
479;SDS011;226;48.606;9.096;2023-08-24T13:19:19;9.90;;;5.70;;
479;SDS011;226;48.606;9.096;2023-08-24T13:21:47;6.57;;;4.90;;
479;SDS011;226;48.606;9.096;2023-08-24T13:24:16;14.23;;;5.03;;
479;SDS011;226;48.606;9.096;2023-08-24T13:26:44;5.73;;;4.80;;
479;SDS011;226;48.606;9.096;2023-08-24T13:29:12;9.73;;;5.30;;
479;SDS011;226;48.606;9.096;2023-08-24T13:31:43;12.63;;;5.60;;
479;SDS011;226;48.606;9.096;2023-08-24T13:34:11;12.13;;;5.57;;
479;SDS011;226;48.606;9.096;2023-08-24T13:36:39;9.37;;;4.93;;
479;SDS011;226;48.606;9.096;2023-08-24T13:39:07;18.23;;;6.67;;
479;SDS011;226;48.606;9.096;2023-08-24T13:41:38;8.50;;;5.30;;
479;SDS011;226;48.606;9.096;2023-08-24T13:44:06;7.30;;;4.80;;
479;SDS011;226;48.606;9.096;2023-08-24T13:46:34;7.70;;;5.03;;
479;SDS011;226;48.606;9.096;2023-08-24T13:49:02;11.30;;;5.67;;
479;SDS011;226;48.606;9.096;2023-08-24T13:51:30;19.67;;;5.33;;
479;SDS011;226;48.606;9.096;2023-08-24T13:53:59;8.70;;;4.37;;
479;SDS011;226;48.606;9.096;2023-08-24T13:56:27;8.23;;;4.00;;
479;SDS011;226;48.606;9.096;2023-08-24T13:58:56;5.37;;;4.77;;
479;SDS011;226;48.606;9.096;2023-08-24T14:01:24;4.97;;;4.47;;
479;SDS011;226;48.606;9.096;2023-08-24T14:03:52;19.20;;;5.37;;
479;SDS011;226;48.606;9.096;2023-08-24T14:06:21;9.93;;;4.93;;
479;SDS011;226;48.606;9.096;2023-08-24T14:08:49;8.60;;;4.50;;
479;SDS011;226;48.606;9.096;2023-08-24T14:11:17;5.20;;;4.17;;
479;SDS011;226;48.606;9.096;2023-08-24T14:13:45;10.43;;;5.30;;
479;SDS011;226;48.606;9.096;2023-08-24T14:16:15;6.37;;;4.70;;
479;SDS011;226;48.606;9.096;2023-08-24T14:18:44;10.10;;;5.13;;
479;SDS011;226;48.606;9.096;2023-08-24T14:21:12;8.23;;;5.37;;
479;SDS011;226;48.606;9.096;2023-08-24T14:23:47;5.17;;;4.40;;
479;SDS011;226;48.606;9.096;2023-08-24T14:26:15;11.93;;;4.70;;
479;SDS011;226;48.606;9.096;2023-08-24T14:28:47;5.17;;;4.47;;
479;SDS011;226;48.606;9.096;2023-08-24T14:31:18;12.90;;;4.63;;
479;SDS011;226;48.606;9.096;2023-08-24T14:33:46;10.17;;;5.20;;
479;SDS011;226;48.606;9.096;2023-08-24T14:36:14;10.73;;;5.60;;
479;SDS011;226;48.606;9.096;2023-08-24T14:38:42;7.37;;;5.27;;
479;SDS011;226;48.606;9.096;2023-08-24T14:41:11;9.37;;;4.60;;
479;SDS011;226;48.606;9.096;2023-08-24T14:43:40;13.40;;;4.90;;
479;SDS011;226;48.606;9.096;2023-08-24T14:46:08;10.80;;;5.27;;
479;SDS011;226;48.606;9.096;2023-08-24T14:48:38;10.10;;;4.50;;
479;SDS011;226;48.606;9.096;2023-08-24T14:51:07;5.00;;;4.57;;
479;SDS011;226;48.606;9.096;2023-08-24T14:53:35;12.80;;;6.30;;
479;SDS011;226;48.606;9.096;2023-08-24T14:56:04;12.27;;;4.97;;
479;SDS011;226;48.606;9.096;2023-08-24T14:58:32;13.57;;;5.77;;
479;SDS011;226;48.606;9.096;2023-08-24T15:01:01;20.23;;;5.80;;
479;SDS011;226;48.606;9.096;2023-08-24T15:03:29;9.47;;;5.87;;
479;SDS011;226;48.606;9.096;2023-08-24T15:05:59;9.63;;;5.87;;
479;SDS011;226;48.606;9.096;2023-08-24T15:08:28;9.17;;;6.20;;
479;SDS011;226;48.606;9.096;2023-08-24T15:10:56;11.50;;;7.30;;
479;SDS011;226;48.606;9.096;2023-08-24T15:13:26;13.40;;;8.10;;
479;SDS011;226;48.606;9.096;2023-08-24T15:15:55;10.90;;;8.10;;
479;SDS011;226;48.606;9.096;2023-08-24T15:18:25;10.57;;;8.23;;
479;SDS011;226;48.606;9.096;2023-08-24T15:20:53;15.37;;;9.43;;
479;SDS011;226;48.606;9.096;2023-08-24T15:23:24;15.13;;;8.03;;
479;SDS011;226;48.606;9.096;2023-08-24T15:25:54;15.50;;;9.13;;
479;SDS011;226;48.606;9.096;2023-08-24T15:28:23;10.87;;;7.97;;
479;SDS011;226;48.606;9.096;2023-08-24T15:30:52;10.17;;;6.13;;
479;SDS011;226;48.606;9.096;2023-08-24T15:33:20;16.83;;;7.30;;
479;SDS011;226;48.606;9.096;2023-08-24T15:35:48;6.73;;;6.13;;
479;SDS011;226;48.606;9.096;2023-08-24T15:38:16;8.37;;;6.57;;
479;SDS011;226;48.606;9.096;2023-08-24T15:40:50;9.47;;;6.27;;
479;SDS011;226;48.606;9.096;2023-08-24T15:43:20;7.00;;;5.37;;
479;SDS011;226;48.606;9.096;2023-08-24T15:45:48;8.40;;;5.50;;